Time;durP1;ratioP1;P1;durP2;ratioP2;P2;SDS_P1;SDS_P2;PMS_P1;PMS_P2;Temp;Humidity;BMP_temperature;BMP_pressure;BME280_temperature;BME280_humidity;BME280_pressure;Samples;Min_cycle;Max_cycle;Signal;HPM_P1;HPM_P2
2023/03/21 00:00:31;;;;;;;13.05;7.43;;;;;;;;;;5052558;28;20502;-65
2023/03/21 00:02:56;;;;;;;19.05;7.57;;;;;;;;;;5042083;28;20026;-65
2023/03/21 00:05:22;;;;;;;15.43;7.07;;;;;;;;;;5052187;28;20170;-65
2023/03/21 00:07:47;;;;;;;19.83;8.25;;;;;;;;;;5036142;28;20540;-65
2023/03/21 00:10:12;;;;;;;13.35;7.68;;;;;;;;;;5046360;28;20082;-65
2023/03/21 00:12:38;;;;;;;13.75;7.57;;;;;;;;;;5044423;28;20040;-65
2023/03/21 00:15:05;;;;;;;14.15;6.97;;;;;;;;;;5036159;28;20112;-65
2023/03/21 00:17:31;;;;;;;20.63;8.15;;;;;;;;;;5017776;28;20029;-65
2023/03/21 00:19:59;;;;;;;13.95;7.40;;;;;;;;;;4992197;28;20025;-65
2023/03/21 00:22:26;;;;;;;15.63;8.50;;;;;;;;;;4993378;28;20025;-65
2023/03/21 00:24:51;;;;;;;12.52;7.88;;;;;;;;;;5005907;28;20874;-65
2023/03/21 00:27:18;;;;;;;18.95;7.50;;;;;;;;;;5007081;28;20190;-65
2023/03/21 00:29:44;;;;;;;17.33;7.85;;;;;;;;;;5008548;28;20035;-65
2023/03/21 00:32:09;;;;;;;13.88;7.97;;;;;;;;;;5002652;28;20033;-65
2023/03/21 00:34:37;;;;;;;14.48;7.75;;;;;;;;;;5005431;28;20859;-65
2023/03/21 00:37:02;;;;;;;15.60;7.10;;;;;;;;;;5006647;28;20028;-65
2023/03/21 00:39:27;;;;;;;13.82;7.70;;;;;;;;;;5005232;28;20017;-65
2023/03/21 00:41:53;;;;;;;18.73;7.93;;;;;;;;;;5003888;28;20890;-65
2023/03/21 00:44:18;;;;;;;16.85;8.15;;;;;;;;;;5003349;28;20083;-65
2023/03/21 00:46:44;;;;;;;16.95;8.02;;;;;;;;;;5007397;28;20825;-65
2023/03/21 00:49:09;;;;;;;16.23;8.55;;;;;;;;;;5005328;28;20029;-65
2023/03/21 00:51:35;;;;;;;15.15;8.48;;;;;;;;;;4997142;28;20032;-65
2023/03/21 00:54:00;;;;;;;13.27;7.15;;;;;;;;;;5001199;28;20041;-65
2023/03/21 00:56:25;;;;;;;15.23;7.35;;;;;;;;;;5007673;28;20025;-65
2023/03/21 00:58:51;;;;;;;12.23;7.45;;;;;;;;;;5005889;28;21076;-65
2023/03/21 01:01:16;;;;;;;13.45;7.90;;;;;;;;;;4991638;28;20033;-65
2023/03/21 01:03:41;;;;;;;12.90;7.45;;;;;;;;;;5016728;28;20032;-65
2023/03/21 01:06:12;;;;;;;18.83;8.25;;;;;;;;;;5038177;28;20386;-65
2023/03/21 01:08:38;;;;;;;16.80;7.40;;;;;;;;;;5004870;28;20034;-65
2023/03/21 01:11:05;;;;;;;16.52;8.05;;;;;;;;;;5047441;28;20026;-64
2023/03/21 01:13:31;;;;;;;18.30;7.47;;;;;;;;;;5034305;28;20108;-64
2023/03/21 01:15:56;;;;;;;22.17;7.13;;;;;;;;;;5050073;28;20120;-65
2023/03/21 01:18:26;;;;;;;17.08;7.97;;;;;;;;;;5053671;28;20066;-65
2023/03/21 01:20:52;;;;;;;15.20;7.93;;;;;;;;;;5052427;28;20041;-65
2023/03/21 01:23:17;;;;;;;22.55;8.45;;;;;;;;;;5052427;28;20434;-65
2023/03/21 01:25:42;;;;;;;13.20;7.55;;;;;;;;;;5051733;28;20021;-65
2023/03/21 01:28:08;;;;;;;21.52;8.80;;;;;;;;;;5052370;28;20029;-65
2023/03/21 01:30:34;;;;;;;16.42;8.70;;;;;;;;;;5053714;28;20095;-65
2023/03/21 01:32:59;;;;;;;18.20;7.95;;;;;;;;;;5053399;28;20443;-65
2023/03/21 01:35:24;;;;;;;13.63;7.95;;;;;;;;;;5053297;28;20029;-65
2023/03/21 01:37:50;;;;;;;16.77;8.18;;;;;;;;;;5052834;28;20023;-65
2023/03/21 01:40:17;;;;;;;12.68;7.82;;;;;;;;;;5053348;28;20345;-65
2023/03/21 01:42:42;;;;;;;14.32;7.90;;;;;;;;;;5036369;28;20020;-65
2023/03/21 01:45:26;;;;;;;16.13;8.38;;;;;;;;;;5033650;28;20029;-65
2023/03/21 01:47:51;;;;;;;11.47;6.10;;;;;;;;;;5024521;28;20020;-65
2023/03/21 01:50:20;;;;;;;12.50;7.30;;;;;;;;;;5002866;28;20033;-66
2023/03/21 01:52:48;;;;;;;29.17;9.00;;;;;;;;;;5036007;28;20064;-67
2023/03/21 01:55:15;;;;;;;22.45;8.63;;;;;;;;;;5049579;28;20605;-66
2023/03/21 01:57:44;;;;;;;22.92;8.38;;;;;;;;;;5050301;28;20055;-65
2023/03/21 02:00:14;;;;;;;11.50;6.97;;;;;;;;;;5051513;28;20025;-65
2023/03/21 02:02:49;;;;;;;13.68;7.38;;;;;;;;;;5051907;28;20028;-65
2023/03/21 02:05:14;;;;;;;12.88;7.15;;;;;;;;;;5053021;28;20075;-65
2023/03/21 02:07:42;;;;;;;19.00;7.78;;;;;;;;;;5039846;28;20057;-65
2023/03/21 02:10:09;;;;;;;13.73;6.95;;;;;;;;;;5052927;28;20044;-65
2023/03/21 02:12:34;;;;;;;12.25;7.55;;;;;;;;;;5052948;28;20013;-65
2023/03/21 02:14:59;;;;;;;17.80;7.32;;;;;;;;;;5052191;28;20094;-65
2023/03/21 02:17:34;;;;;;;11.00;6.85;;;;;;;;;;5051151;28;20030;-65
2023/03/21 02:20:20;;;;;;;14.27;7.60;;;;;;;;;;5050455;28;20024;-65
2023/03/21 02:22:51;;;;;;;25.77;7.75;;;;;;;;;;5039724;28;20090;-65
2023/03/21 02:25:17;;;;;;;10.75;6.93;;;;;;;;;;5041676;28;20029;-65
2023/03/21 02:27:49;;;;;;;11.60;6.17;;;;;;;;;;5039673;28;20424;-65
2023/03/21 02:30:14;;;;;;;24.05;7.60;;;;;;;;;;5052372;28;20264;-65
2023/03/21 02:32:39;;;;;;;21.23;8.03;;;;;;;;;;5052833;28;20476;-65
2023/03/21 02:35:05;;;;;;;14.10;6.88;;;;;;;;;;5052499;28;20665;-65
2023/03/21 02:37:42;;;;;;;13.15;7.00;;;;;;;;;;5039679;28;20095;-65
2023/03/21 02:40:14;;;;;;;10.75;5.78;;;;;;;;;;5052120;28;20379;-65
2023/03/21 02:42:47;;;;;;;13.88;7.22;;;;;;;;;;5045759;28;20021;-65
2023/03/21 02:45:17;;;;;;;14.63;6.95;;;;;;;;;;5044337;28;20021;-65
2023/03/21 02:47:51;;;;;;;9.73;6.47;;;;;;;;;;5039363;28;20025;-65
2023/03/21 02:50:16;;;;;;;15.63;6.95;;;;;;;;;;5050817;28;20391;-65
2023/03/21 02:52:42;;;;;;;16.67;7.53;;;;;;;;;;5052250;28;20032;-65
2023/03/21 02:55:12;;;;;;;15.80;7.60;;;;;;;;;;5049351;28;20033;-65
2023/03/21 02:57:39;;;;;;;12.95;7.03;;;;;;;;;;5039811;28;20391;-65
2023/03/21 03:00:09;;;;;;;11.90;7.32;;;;;;;;;;5052209;28;20031;-65
2023/03/21 03:02:36;;;;;;;13.00;6.72;;;;;;;;;;5038415;28;20079;-65
2023/03/21 03:05:11;;;;;;;12.23;6.22;;;;;;;;;;5032651;28;20029;-65
2023/03/21 03:07:36;;;;;;;;;;;;;;;;;;5032894;28;20027;-65
2023/03/21 03:10:09;;;;;;;13.50;7.00;;;;;;;;;;5041167;28;19913;-65
2023/03/21 03:12:35;;;;;;;11.55;7.25;;;;;;;;;;5051785;28;21945;-65
2023/03/21 03:15:10;;;;;;;12.85;6.68;;;;;;;;;;5042971;28;20029;-65
2023/03/21 03:17:36;;;;;;;16.90;7.25;;;;;;;;;;5032535;28;20033;-66
2023/03/21 03:20:30;;;;;;;13.95;6.85;;;;;;;;;;5040554;28;20021;-65
2023/03/21 03:23:07;;;;;;;12.13;6.10;;;;;;;;;;5017475;28;20073;-65
2023/03/21 03:25:54;;;;;;;13.25;6.90;;;;;;;;;;5047007;28;20044;-65
2023/03/21 03:28:22;;;;;;;14.40;6.13;;;;;;;;;;5051138;28;20103;-65
2023/03/21 03:30:48;;;;;;;17.02;7.07;;;;;;;;;;5044180;28;20404;-65
2023/03/21 03:33:15;;;;;;;13.70;7.63;;;;;;;;;;5043365;28;20478;-65
2023/03/21 03:35:41;;;;;;;10.80;7.20;;;;;;;;;;5039862;28;20029;-65
2023/03/21 03:38:07;;;;;;;22.15;8.10;;;;;;;;;;5044533;28;20025;-65
2023/03/21 03:40:39;;;;;;;16.02;7.47;;;;;;;;;;5042632;28;20084;-65
2023/03/21 03:43:07;;;;;;;17.15;6.35;;;;;;;;;;5047960;28;20419;-65
2023/03/21 03:45:35;;;;;;;13.75;6.57;;;;;;;;;;5042132;28;20099;-65
2023/03/21 03:48:24;;;;;;;13.07;6.97;;;;;;;;;;5047524;28;20025;-65
2023/03/21 03:50:53;;;;;;;19.88;6.60;;;;;;;;;;5045599;28;20021;-65
2023/03/21 03:53:21;;;;;;;19.73;7.15;;;;;;;;;;5043533;28;20025;-65
2023/03/21 03:55:47;;;;;;;16.30;6.68;;;;;;;;;;5045918;28;20063;-65
2023/03/21 03:58:17;;;;;;;14.27;6.65;;;;;;;;;;5043087;28;20028;-65
2023/03/21 04:00:43;;;;;;;14.13;6.97;;;;;;;;;;5046571;28;20545;-65
2023/03/21 04:03:09;;;;;;;13.45;6.32;;;;;;;;;;5049447;28;20018;-65
2023/03/21 04:05:35;;;;;;;11.20;6.63;;;;;;;;;;5046205;28;20020;-66
2023/03/21 04:08:01;;;;;;;11.40;6.47;;;;;;;;;;5039976;28;20376;-65
2023/03/21 04:10:26;;;;;;;15.45;7.25;;;;;;;;;;5051701;28;20032;-65
2023/03/21 04:12:51;;;;;;;14.85;6.25;;;;;;;;;;5049380;28;20037;-65
2023/03/21 04:15:18;;;;;;;17.83;6.57;;;;;;;;;;5039764;28;20056;-65
2023/03/21 04:17:44;;;;;;;12.73;6.13;;;;;;;;;;5048009;28;20033;-65
2023/03/21 04:20:09;;;;;;;8.95;5.82;;;;;;;;;;5035301;28;20488;-65
2023/03/21 04:22:35;;;;;;;12.60;6.80;;;;;;;;;;5048182;28;20028;-65
2023/03/21 04:25:00;;;;;;;18.30;6.38;;;;;;;;;;5035211;28;20035;-65
2023/03/21 04:27:26;;;;;;;13.55;6.35;;;;;;;;;;5040554;28;20753;-65
2023/03/21 04:29:51;;;;;;;12.45;6.35;;;;;;;;;;5054916;28;20052;-65
2023/03/21 04:32:18;;;;;;;16.25;6.93;;;;;;;;;;5054285;28;20021;-65
2023/03/21 04:34:48;;;;;;;10.85;6.28;;;;;;;;;;5042925;28;20455;-65
2023/03/21 04:37:14;;;;;;;15.80;6.38;;;;;;;;;;5035124;28;20076;-65
2023/03/21 04:39:40;;;;;;;9.65;5.40;;;;;;;;;;5046913;28;20391;-65
2023/03/21 04:42:05;;;;;;;12.10;5.88;;;;;;;;;;5041358;28;20033;-64
2023/03/21 04:44:30;;;;;;;12.43;6.00;;;;;;;;;;5053904;28;20017;-65
2023/03/21 04:46:55;;;;;;;11.38;5.20;;;;;;;;;;5049579;28;20036;-65
2023/03/21 04:49:21;;;;;;;16.67;6.20;;;;;;;;;;5038789;28;20060;-65
2023/03/21 04:51:46;;;;;;;10.23;5.68;;;;;;;;;;5038667;28;20033;-65
2023/03/21 04:54:12;;;;;;;12.45;5.60;;;;;;;;;;5039894;28;20061;-65
2023/03/21 04:56:37;;;;;;;9.68;5.13;;;;;;;;;;5040631;28;20030;-65
2023/03/21 04:59:05;;;;;;;8.13;4.72;;;;;;;;;;5039116;28;20096;-65
2023/03/21 05:01:31;;;;;;;11.98;6.15;;;;;;;;;;5023345;28;20029;-65
2023/03/21 05:03:57;;;;;;;12.10;5.57;;;;;;;;;;4996652;28;20021;-66
2023/03/21 05:06:22;;;;;;;10.38;5.72;;;;;;;;;;5005729;28;20032;-65
2023/03/21 05:08:47;;;;;;;18.10;5.85;;;;;;;;;;5003814;28;20029;-65
2023/03/21 05:11:13;;;;;;;11.18;6.78;;;;;;;;;;5004088;28;20021;-65
2023/03/21 05:13:38;;;;;;;12.07;6.18;;;;;;;;;;5046832;28;20036;-65
2023/03/21 05:16:04;;;;;;;19.38;6.88;;;;;;;;;;5053277;28;20189;-65
2023/03/21 05:18:33;;;;;;;13.50;6.45;;;;;;;;;;5053700;28;20430;-65
2023/03/21 05:20:59;;;;;;;16.70;6.18;;;;;;;;;;5052380;28;20424;-64
2023/03/21 05:23:24;;;;;;;13.63;6.95;;;;;;;;;;5034156;28;20021;-65
2023/03/21 05:25:49;;;;;;;14.77;6.93;;;;;;;;;;5033499;28;20025;-64
2023/03/21 05:28:17;;;;;;;13.00;6.20;;;;;;;;;;5052982;28;20021;-64
2023/03/21 05:30:43;;;;;;;13.38;7.25;;;;;;;;;;5051732;28;20036;-65
2023/03/21 05:33:08;;;;;;;12.18;6.60;;;;;;;;;;5053882;28;20025;-65
2023/03/21 05:35:33;;;;;;;12.48;6.15;;;;;;;;;;5047861;28;20420;-65
2023/03/21 05:37:58;;;;;;;10.63;6.25;;;;;;;;;;5050373;28;20060;-65
2023/03/21 05:40:24;;;;;;;13.07;5.82;;;;;;;;;;5053189;28;20541;-65
2023/03/21 05:42:49;;;;;;;10.65;5.78;;;;;;;;;;5053439;28;20074;-64
2023/03/21 05:45:15;;;;;;;14.05;5.60;;;;;;;;;;5052564;28;20100;-64
2023/03/21 05:47:40;;;;;;;10.52;5.88;;;;;;;;;;5053033;28;20391;-65
2023/03/21 05:50:05;;;;;;;11.40;5.50;;;;;;;;;;5052315;28;20371;-65
2023/03/21 05:52:31;;;;;;;11.63;5.55;;;;;;;;;;5053201;28;20082;-65
2023/03/21 05:54:56;;;;;;;10.57;5.13;;;;;;;;;;5048044;28;20025;-65
2023/03/21 05:57:22;;;;;;;11.48;4.93;;;;;;;;;;5033329;28;20387;-65
2023/03/21 05:59:47;;;;;;;12.15;4.85;;;;;;;;;;5033774;28;20064;-65
2023/03/21 06:02:12;;;;;;;10.48;4.38;;;;;;;;;;5043942;28;20033;-65
2023/03/21 06:04:37;;;;;;;9.85;4.72;;;;;;;;;;5044136;28;20033;-65
2023/03/21 06:07:03;;;;;;;7.88;3.95;;;;;;;;;;5033863;28;20034;-65
2023/03/21 06:09:28;;;;;;;9.55;4.07;;;;;;;;;;5037748;28;20025;-65
2023/03/21 06:11:54;;;;;;;12.77;4.53;;;;;;;;;;5042569;28;20031;-65
2023/03/21 06:14:20;;;;;;;9.73;3.78;;;;;;;;;;5033917;28;20067;-65
2023/03/21 06:16:45;;;;;;;8.73;3.85;;;;;;;;;;5033636;28;20574;-65
2023/03/21 06:19:10;;;;;;;9.75;3.90;;;;;;;;;;5033765;28;20021;-65
2023/03/21 06:21:36;;;;;;;9.25;3.40;;;;;;;;;;5033387;28;20045;-65
2023/03/21 06:24:01;;;;;;;8.45;3.85;;;;;;;;;;5037207;28;20025;-64
2023/03/21 06:26:26;;;;;;;7.35;2.78;;;;;;;;;;5042843;28;20017;-65
2023/03/21 06:28:52;;;;;;;11.02;3.45;;;;;;;;;;5033596;28;20090;-65
2023/03/21 06:31:19;;;;;;;7.05;3.35;;;;;;;;;;5041578;28;20021;-64
2023/03/21 06:33:44;;;;;;;7.38;3.22;;;;;;;;;;5047992;28;20030;-65
2023/03/21 06:36:10;;;;;;;9.43;3.47;;;;;;;;;;5033132;28;20656;-65
2023/03/21 06:38:36;;;;;;;12.73;4.03;;;;;;;;;;5033569;28;20025;-64
2023/03/21 06:41:06;;;;;;;8.75;3.92;;;;;;;;;;5042818;28;20029;-65
2023/03/21 06:43:32;;;;;;;11.65;4.28;;;;;;;;;;5032182;28;20030;-65
2023/03/21 06:45:57;;;;;;;11.68;5.18;;;;;;;;;;5037788;28;20023;-65
2023/03/21 06:48:23;;;;;;;8.55;4.80;;;;;;;;;;5039299;28;20018;-65
2023/03/21 06:50:49;;;;;;;5.82;3.78;;;;;;;;;;5037839;28;20592;-65
2023/03/21 06:53:14;;;;;;;19.02;4.93;;;;;;;;;;5039060;28;20024;-65
2023/03/21 06:55:39;;;;;;;9.23;4.95;;;;;;;;;;5038203;28;20030;-64
2023/03/21 06:58:05;;;;;;;11.77;4.70;;;;;;;;;;5039203;28;20092;-65
2023/03/21 07:00:33;;;;;;;10.65;4.88;;;;;;;;;;5031496;28;20467;-65
2023/03/21 07:03:00;;;;;;;18.70;6.03;;;;;;;;;;5051611;28;20092;-65
2023/03/21 07:05:26;;;;;;;15.43;5.03;;;;;;;;;;5051973;28;20104;-64
2023/03/21 07:07:51;;;;;;;7.63;4.72;;;;;;;;;;5037133;28;20439;-64
2023/03/21 07:10:16;;;;;;;8.20;5.57;;;;;;;;;;5045761;28;20092;-65
2023/03/21 07:12:42;;;;;;;12.38;4.78;;;;;;;;;;5047749;28;20068;-64
2023/03/21 07:15:08;;;;;;;11.02;5.30;;;;;;;;;;5035649;28;20082;-64
2023/03/21 07:17:33;;;;;;;10.10;5.40;;;;;;;;;;5052967;28;20475;-65
2023/03/21 07:19:58;;;;;;;12.18;4.90;;;;;;;;;;5055583;28;20053;-65
2023/03/21 07:22:24;;;;;;;11.15;5.15;;;;;;;;;;5053573;28;20029;-65
2023/03/21 07:24:49;;;;;;;10.80;5.07;;;;;;;;;;5053669;28;20013;-65
2023/03/21 07:27:15;;;;;;;12.48;5.45;;;;;;;;;;5053579;28;20054;-64
2023/03/21 07:29:41;;;;;;;15.52;5.63;;;;;;;;;;5054145;28;20057;-65
2023/03/21 07:32:06;;;;;;;12.32;5.75;;;;;;;;;;5054290;28;20060;-65
2023/03/21 07:34:32;;;;;;;9.38;5.40;;;;;;;;;;5047143;28;20460;-64
2023/03/21 07:36:58;;;;;;;8.02;4.32;;;;;;;;;;5028541;28;20869;-65
2023/03/21 07:39:24;;;;;;;10.00;5.13;;;;;;;;;;4998629;28;20059;-65
2023/03/21 07:41:50;;;;;;;15.70;5.72;;;;;;;;;;5009273;28;20017;-65
2023/03/21 07:44:15;;;;;;;11.70;5.47;;;;;;;;;;5010854;28;20820;-65
2023/03/21 07:46:40;;;;;;;11.80;5.03;;;;;;;;;;5052236;28;20490;-65
2023/03/21 07:49:07;;;;;;;15.10;5.70;;;;;;;;;;5053381;28;20047;-65
2023/03/21 07:51:34;;;;;;;11.82;4.63;;;;;;;;;;5051529;28;20033;-65
2023/03/21 07:54:00;;;;;;;13.40;4.88;;;;;;;;;;5053670;28;20033;-64
2023/03/21 07:56:25;;;;;;;12.95;4.85;;;;;;;;;;5051623;28;20017;-64
2023/03/21 07:58:50;;;;;;;18.67;4.97;;;;;;;;;;5053368;28;20464;-64
2023/03/21 08:01:15;;;;;;;12.57;5.32;;;;;;;;;;5051430;28;20028;-65
2023/03/21 08:03:42;;;;;;;17.02;5.22;;;;;;;;;;5054094;28;20788;-64
2023/03/21 08:06:07;;;;;;;8.23;5.03;;;;;;;;;;5052454;28;20472;-65
2023/03/21 08:08:33;;;;;;;9.88;4.80;;;;;;;;;;5053327;28;20025;-64
2023/03/21 08:10:58;;;;;;;9.95;4.72;;;;;;;;;;5052103;28;20390;-65
2023/03/21 08:13:24;;;;;;;14.02;5.28;;;;;;;;;;5008271;28;20052;-65
2023/03/21 08:15:50;;;;;;;10.93;5.32;;;;;;;;;;5007546;28;20038;-65
2023/03/21 08:18:15;;;;;;;8.73;5.13;;;;;;;;;;5016037;28;20060;-65
2023/03/21 08:20:40;;;;;;;12.38;5.32;;;;;;;;;;5052227;28;20460;-65
2023/03/21 08:23:06;;;;;;;13.10;4.90;;;;;;;;;;5034364;28;20025;-65
2023/03/21 08:25:32;;;;;;;10.63;5.13;;;;;;;;;;5005524;28;20087;-67
2023/03/21 08:27:57;;;;;;;8.90;5.00;;;;;;;;;;5005780;28;20021;-65
2023/03/21 08:30:24;;;;;;;12.45;5.20;;;;;;;;;;5008758;28;21522;-65
2023/03/21 08:32:50;;;;;;;7.95;5.18;;;;;;;;;;5007348;28;20059;-66
2023/03/21 08:35:17;;;;;;;9.65;4.53;;;;;;;;;;5004424;28;20021;-66
2023/03/21 08:37:43;;;;;;;12.57;4.85;;;;;;;;;;5004415;28;20027;-66
2023/03/21 08:40:10;;;;;;;8.23;4.88;;;;;;;;;;5004135;28;20021;-66
2023/03/21 08:42:36;;;;;;;13.88;5.95;;;;;;;;;;4997737;28;20551;-66
2023/03/21 08:45:01;;;;;;;9.20;5.03;;;;;;;;;;5008905;28;20056;-66
2023/03/21 08:47:27;;;;;;;8.82;4.88;;;;;;;;;;5001444;28;20021;-65
2023/03/21 08:49:52;;;;;;;8.80;5.18;;;;;;;;;;5039333;28;20029;-65
2023/03/21 08:52:17;;;;;;;10.38;4.95;;;;;;;;;;5052207;28;20472;-66
2023/03/21 08:54:44;;;;;;;11.15;5.35;;;;;;;;;;5053285;28;20051;-65
2023/03/21 08:57:10;;;;;;;9.57;5.75;;;;;;;;;;5051980;28;20078;-65
2023/03/21 08:59:35;;;;;;;12.98;5.47;;;;;;;;;;5050176;28;20028;-65
2023/03/21 09:02:00;;;;;;;9.80;5.00;;;;;;;;;;5051660;28;20028;-65
2023/03/21 09:04:26;;;;;;;9.07;5.25;;;;;;;;;;5052333;28;20032;-65
2023/03/21 09:06:51;;;;;;;12.23;5.72;;;;;;;;;;5051596;28;20021;-65
2023/03/21 09:09:17;;;;;;;12.35;6.20;;;;;;;;;;5036477;28;20028;-65
2023/03/21 09:11:42;;;;;;;12.00;5.00;;;;;;;;;;5006615;28;20021;-65
2023/03/21 09:14:08;;;;;;;13.38;5.97;;;;;;;;;;5008554;28;20032;-65
2023/03/21 09:16:33;;;;;;;9.70;5.70;;;;;;;;;;5006140;28;20825;-65
2023/03/21 09:18:59;;;;;;;11.75;5.82;;;;;;;;;;5042258;28;20024;-65
2023/03/21 09:21:26;;;;;;;11.27;5.95;;;;;;;;;;5047121;28;20044;-65
2023/03/21 09:23:55;;;;;;;13.88;5.43;;;;;;;;;;5047742;28;20017;-65
2023/03/21 09:26:20;;;;;;;10.50;4.50;;;;;;;;;;5046585;28;20029;-65
2023/03/21 09:28:47;;;;;;;10.60;4.82;;;;;;;;;;5046151;28;20016;-64
2023/03/21 09:31:15;;;;;;;11.52;5.40;;;;;;;;;;5048553;28;20039;-65
2023/03/21 09:33:41;;;;;;;7.13;4.57;;;;;;;;;;5049866;28;20040;-65
2023/03/21 09:36:13;;;;;;;8.57;4.90;;;;;;;;;;5045697;28;20025;-64
2023/03/21 09:38:44;;;;;;;10.75;4.78;;;;;;;;;;5050922;28;20651;-64
2023/03/21 09:41:09;;;;;;;8.60;5.32;;;;;;;;;;5052409;28;20375;-64
2023/03/21 09:43:57;;;;;;;9.02;4.90;;;;;;;;;;5048476;28;20042;-65
2023/03/21 09:46:41;;;;;;;17.45;5.18;;;;;;;;;;5039118;28;20044;-64
2023/03/21 09:49:19;;;;;;;11.65;4.63;;;;;;;;;;5033908;28;20026;-65
2023/03/21 09:51:51;;;;;;;17.27;5.45;;;;;;;;;;5034539;28;20030;-65
2023/03/21 09:54:22;;;;;;;8.70;4.35;;;;;;;;;;5033971;28;20553;-65
2023/03/21 09:56:49;;;;;;;9.05;4.65;;;;;;;;;;5034119;28;20385;-65
2023/03/21 09:59:26;;;;;;;10.93;5.35;;;;;;;;;;5013872;28;20029;-65
2023/03/21 10:01:54;;;;;;;10.05;5.05;;;;;;;;;;4995802;28;20033;-65
2023/03/21 10:04:21;;;;;;;10.88;4.80;;;;;;;;;;4996611;28;20059;-65
2023/03/21 10:06:50;;;;;;;10.43;4.53;;;;;;;;;;5000913;28;20445;-65
2023/03/21 10:09:21;;;;;;;8.60;4.35;;;;;;;;;;5003029;28;20136;-65
2023/03/21 10:12:07;;;;;;;9.55;4.13;;;;;;;;;;4993988;28;20030;-65
2023/03/21 10:14:34;;;;;;;8.93;4.07;;;;;;;;;;5000214;28;20036;-64
2023/03/21 10:17:08;;;;;;;7.75;4.07;;;;;;;;;;4999696;28;20027;-65
2023/03/21 10:19:33;;;;;;;8.80;4.50;;;;;;;;;;5045039;28;20036;-65
2023/03/21 10:21:58;;;;;;;8.80;4.78;;;;;;;;;;5051503;28;20376;-64
2023/03/21 10:24:25;;;;;;;9.30;3.78;;;;;;;;;;5040608;28;20100;-65
2023/03/21 10:26:51;;;;;;;7.90;4.82;;;;;;;;;;5047171;28;20479;-65
2023/03/21 10:29:18;;;;;;;6.35;3.80;;;;;;;;;;5046773;28;20498;-65
2023/03/21 10:32:14;;;;;;;8.82;4.93;;;;;;;;;;5045838;28;20120;-64
2023/03/21 10:34:51;;;;;;;11.05;4.68;;;;;;;;;;5004111;28;20057;-64
2023/03/21 10:37:17;;;;;;;8.60;4.40;;;;;;;;;;5001274;28;20037;-64
2023/03/21 10:39:44;;;;;;;16.08;3.90;;;;;;;;;;5004765;28;20029;-65
2023/03/21 10:42:20;;;;;;;8.10;3.72;;;;;;;;;;4998809;28;20024;-65
2023/03/21 10:44:46;;;;;;;7.90;4.28;;;;;;;;;;4994435;28;21023;-65
2023/03/21 10:47:11;;;;;;;8.02;4.43;;;;;;;;;;5034198;28;20158;-64
2023/03/21 10:49:37;;;;;;;7.85;4.55;;;;;;;;;;5050248;28;20364;-64
2023/03/21 10:52:04;;;;;;;9.70;3.88;;;;;;;;;;5043041;28;20017;-64
2023/03/21 10:54:34;;;;;;;8.00;3.38;;;;;;;;;;5052376;28;20052;-64
2023/03/21 10:57:03;;;;;;;11.65;3.90;;;;;;;;;;5025411;28;20022;-64
2023/03/21 10:59:34;;;;;;;7.60;3.30;;;;;;;;;;5050459;28;20028;-64
2023/03/21 11:02:01;;;;;;;7.65;4.00;;;;;;;;;;5045553;28;20496;-64
2023/03/21 11:04:28;;;;;;;5.13;3.08;;;;;;;;;;5050463;28;20028;-65
2023/03/21 11:06:55;;;;;;;10.80;2.83;;;;;;;;;;5046245;28;20040;-64
2023/03/21 11:09:23;;;;;;;7.75;3.97;;;;;;;;;;5025087;28;20021;-65
2023/03/21 11:11:49;;;;;;;6.68;3.30;;;;;;;;;;5022820;28;20120;-64
2023/03/21 11:14:25;;;;;;;10.02;3.13;;;;;;;;;;5042119;28;20065;-64
2023/03/21 11:16:50;;;;;;;14.90;3.22;;;;;;;;;;5011939;28;20025;-64
2023/03/21 11:19:26;;;;;;;5.53;3.05;;;;;;;;;;5006160;28;20352;-65
2023/03/21 11:21:51;;;;;;;4.95;2.97;;;;;;;;;;5052943;28;20041;-64
2023/03/21 11:24:17;;;;;;;7.15;2.60;;;;;;;;;;5045303;28;20036;-64
2023/03/21 11:26:44;;;;;;;5.40;2.92;;;;;;;;;;5044637;28;20047;-64
2023/03/21 11:29:29;;;;;;;9.80;3.17;;;;;;;;;;5030562;28;20090;-64
2023/03/21 11:32:21;;;;;;;6.78;2.25;;;;;;;;;;5007403;28;20024;-65
2023/03/21 11:34:49;;;;;;;4.03;2.28;;;;;;;;;;5034995;28;20049;-64
2023/03/21 11:37:23;;;;;;;4.03;2.28;;;;;;;;;;5007086;28;20032;-64
2023/03/21 11:39:53;;;;;;;6.18;2.97;;;;;;;;;;5008529;28;20127;-64
2023/03/21 11:42:26;;;;;;;5.80;2.45;;;;;;;;;;5022580;28;20226;-64
2023/03/21 11:44:56;;;;;;;5.63;2.42;;;;;;;;;;5031788;28;20107;-65
2023/03/21 11:47:22;;;;;;;6.38;2.75;;;;;;;;;;5012116;28;20037;-64
2023/03/21 11:49:47;;;;;;;5.95;2.33;;;;;;;;;;5034539;28;20049;-64
2023/03/21 11:52:35;;;;;;;6.53;2.83;;;;;;;;;;5040527;28;20029;-64
2023/03/21 11:55:19;;;;;;;3.45;2.10;;;;;;;;;;5039713;28;20037;-64
2023/03/21 11:57:59;;;;;;;5.33;2.80;;;;;;;;;;5053864;28;20028;-64
2023/03/21 12:00:37;;;;;;;3.65;2.17;;;;;;;;;;5050151;28;20025;-64
2023/03/21 12:03:08;;;;;;;5.80;1.95;;;;;;;;;;5041324;28;20009;-64
2023/03/21 12:05:35;;;;;;;5.50;2.20;;;;;;;;;;5051726;28;20040;-64
2023/03/21 12:08:06;;;;;;;5.22;2.15;;;;;;;;;;5040257;28;20432;-64
2023/03/21 12:10:56;;;;;;;4.95;2.45;;;;;;;;;;5052564;28;20387;-64
2023/03/21 12:13:22;;;;;;;4.93;2.40;;;;;;;;;;5043935;28;20476;-64
2023/03/21 12:15:52;;;;;;;4.88;2.30;;;;;;;;;;5052861;28;20053;-64
2023/03/21 12:18:40;;;;;;;6.13;2.38;;;;;;;;;;5054256;28;20151;-64
2023/03/21 12:21:14;;;;;;;4.57;2.00;;;;;;;;;;5054415;28;20075;-64
2023/03/21 12:23:42;;;;;;;4.13;2.53;;;;;;;;;;5052998;28;20033;-64
2023/03/21 12:26:29;;;;;;;8.45;2.42;;;;;;;;;;5053731;28;20024;-64
2023/03/21 12:29:03;;;;;;;6.18;2.65;;;;;;;;;;5052697;28;20557;-64
2023/03/21 12:31:47;;;;;;;4.50;2.30;;;;;;;;;;5054182;28;20036;-64
2023/03/21 12:34:18;;;;;;;6.00;2.58;;;;;;;;;;5047430;28;20476;-64
2023/03/21 12:37:07;;;;;;;4.47;2.50;;;;;;;;;;5035232;28;20040;-65
2023/03/21 12:39:37;;;;;;;6.72;2.72;;;;;;;;;;5042280;28;20112;-64
2023/03/21 12:42:21;;;;;;;7.20;2.63;;;;;;;;;;5042292;28;20384;-64
2023/03/21 12:44:49;;;;;;;5.10;2.20;;;;;;;;;;5045125;28;20060;-65
2023/03/21 12:47:20;;;;;;;4.35;1.98;;;;;;;;;;5042206;28;20055;-65
2023/03/21 12:49:55;;;;;;;3.63;2.03;;;;;;;;;;5053917;28;20025;-65
2023/03/21 12:52:26;;;;;;;4.82;2.50;;;;;;;;;;5035874;28;20379;-65
2023/03/21 12:54:55;;;;;;;6.50;2.53;;;;;;;;;;5036252;28;20037;-65
2023/03/21 12:57:24;;;;;;;6.25;2.55;;;;;;;;;;5034470;28;20173;-65
2023/03/21 12:59:59;;;;;;;4.75;2.38;;;;;;;;;;5050517;28;20083;-65
2023/03/21 13:02:31;;;;;;;4.07;1.88;;;;;;;;;;5053419;28;20025;-64
2023/03/21 13:04:57;;;;;;;5.70;2.45;;;;;;;;;;5053873;28;20024;-64
2023/03/21 13:07:24;;;;;;;5.07;2.70;;;;;;;;;;5042527;28;20026;-64
2023/03/21 13:09:50;;;;;;;8.20;2.97;;;;;;;;;;5041631;28;20023;-64
2023/03/21 13:12:25;;;;;;;11.85;2.75;;;;;;;;;;5052309;28;20041;-65
2023/03/21 13:15:03;;;;;;;4.35;2.30;;;;;;;;;;5036514;28;20033;-64
2023/03/21 13:17:36;;;;;;;7.35;2.25;;;;;;;;;;5053625;28;20029;-64
2023/03/21 13:20:07;;;;;;;4.90;2.28;;;;;;;;;;5053926;28;20129;-64
2023/03/21 13:22:32;;;;;;;8.60;2.67;;;;;;;;;;5035757;28;20034;-64
2023/03/21 13:24:57;;;;;;;6.10;2.80;;;;;;;;;;5037116;28;20039;-64
2023/03/21 13:27:28;;;;;;;6.70;2.58;;;;;;;;;;5036971;28;20044;-64
2023/03/21 13:30:01;;;;;;;5.10;2.38;;;;;;;;;;5036072;28;20036;-64
2023/03/21 13:32:34;;;;;;;3.80;1.98;;;;;;;;;;5040603;28;20021;-64
2023/03/21 13:35:02;;;;;;;3.40;2.08;;;;;;;;;;5053048;28;20036;-63
2023/03/21 13:37:31;;;;;;;8.93;2.47;;;;;;;;;;5040483;28;20024;-64
2023/03/21 13:40:00;;;;;;;6.05;2.25;;;;;;;;;;5052782;28;20032;-64
2023/03/21 13:42:31;;;;;;;6.93;2.40;;;;;;;;;;5052638;28;20036;-64
2023/03/21 13:44:58;;;;;;;6.68;2.33;;;;;;;;;;5052083;28;20121;-64
2023/03/21 13:47:32;;;;;;;9.63;2.67;;;;;;;;;;5052238;28;20016;-64
2023/03/21 13:49:57;;;;;;;;;;;;;;;;;;5052922;28;20040;-64
2023/03/21 13:52:26;;;;;;;8.18;2.40;;;;;;;;;;5052661;28;19913;-64
2023/03/21 13:54:56;;;;;;;3.92;2.08;;;;;;;;;;5051942;28;20071;-64
2023/03/21 13:57:37;;;;;;;5.15;2.30;;;;;;;;;;5051621;28;20017;-64
2023/03/21 14:00:22;;;;;;;6.43;2.15;;;;;;;;;;5050576;28;20086;-64
2023/03/21 14:03:07;;;;;;;10.52;2.65;;;;;;;;;;5049466;28;20029;-64
2023/03/21 14:05:34;;;;;;;7.68;2.53;;;;;;;;;;5053354;28;20036;-64
2023/03/21 14:08:15;;;;;;;6.30;2.72;;;;;;;;;;5051312;28;20455;-64
2023/03/21 14:10:43;;;;;;;7.05;1.92;;;;;;;;;;5052666;28;20020;-64
2023/03/21 14:13:15;;;;;;;7.88;2.50;;;;;;;;;;5033732;28;20103;-64
2023/03/21 14:15:42;;;;;;;6.78;2.72;;;;;;;;;;5038293;28;20503;-64
2023/03/21 14:18:13;;;;;;;5.78;2.45;;;;;;;;;;5033556;28;20036;-64
2023/03/21 14:20:40;;;;;;;3.90;2.13;;;;;;;;;;5036898;28;20025;-64
2023/03/21 14:23:06;;;;;;;5.60;2.33;;;;;;;;;;5033821;28;20495;-64
2023/03/21 14:25:33;;;;;;;5.63;2.22;;;;;;;;;;5046603;28;20020;-64
2023/03/21 14:28:00;;;;;;;12.65;2.53;;;;;;;;;;5034427;28;20037;-64
2023/03/21 14:30:27;;;;;;;5.38;1.85;;;;;;;;;;5038489;28;20052;-64
2023/03/21 14:32:57;;;;;;;7.50;2.40;;;;;;;;;;5052823;28;20025;-64
2023/03/21 14:35:24;;;;;;;7.03;2.63;;;;;;;;;;5038120;28;20030;-64
2023/03/21 14:37:50;;;;;;;7.35;2.53;;;;;;;;;;5052655;28;20025;-64
2023/03/21 14:40:23;;;;;;;3.55;1.67;;;;;;;;;;5037042;28;20084;-64
2023/03/21 14:42:49;;;;;;;6.88;2.30;;;;;;;;;;5041327;28;20076;-64